• Join FlightAware (Why Join?)
  • Login
  • US Flag 
08:40PM EDT


 

Airport Tracker/Info


-or-


 

Live Flight TrackerFlight Track Log ✈ 9V-SKH ✈ 03-May-2013 ✈ YSSY / SYD - WSSS / SIN

Flight Track Log - Related Links

Times and Time Zones

All times are in EDT time to prevent confusion due to time zone crossing. See the 9V-SKH flight status page for this flight to view local times or setup timezone preferences in your user account.

Time Position Orientation Groundspeed Altitude Reporting Facility
EDT Latitude Longitude Course Direction KTS MPH feet Rate Location/Type
01:18AM -33.9410 151.1680 33° Northeast 1 1  Level FlightAware
01:19AM -33.9410 151.1670 270° West  Level FlightAware
01:21AM -33.8451 150.9551 299° West  Level Estimated
01:22AM -33.7890 150.8319 299° West  Level Estimated
01:22AM -33.9410 151.1680 299° West 5 6  Level FlightAware
01:23AM -33.7328 150.7089 299° West  Level Estimated
01:23AM -33.9400 151.1690 40° Northeast 8 9  Level FlightAware
01:23AM -33.9400 151.1710 90° East 11 13  Level FlightAware
01:24AM -33.9410 151.1720 140° Southeast 9 10  Level FlightAware
01:24AM -33.9410 151.1730 90° East 10 12  Level FlightAware
01:25AM -33.9430 151.1730 180° South 13 15  Level FlightAware
01:25AM -33.9440 151.1740 140° Southeast 15 17  Level FlightAware
01:26AM -33.9460 151.1740 180° South 17 20  Level FlightAware
01:26AM -33.9490 151.1750 165° South 23 26  Level FlightAware
01:26AM -33.9520 151.1750 180° South 26 30  Level FlightAware
01:27AM -33.9560 151.1760 168° South 27 31  Level FlightAware
01:27AM -33.9590 151.1770 165° South 22 25  Level FlightAware
01:28AM -33.9610 151.1780 157° South 15 17  Level FlightAware
01:28AM -33.9630 151.1780 180° South 14 16  Level FlightAware
01:30AM -33.9640 151.1800 299° West 7 8  Level FlightAware
01:31AM -33.8437 150.9147 299° West  Level Estimated
01:31AM -33.9640 151.1810 90° East 5 6  Level FlightAware
01:31AM -33.9620 151.1800 337° Northwest 48 55 120 Level FlightAware
01:32AM -33.9490 151.1770 349° North 133 153 180 Level FlightAware
01:32AM -33.9320 151.1720 346° North 149 171 200 960 Climbing FlightAware
01:33AM -33.9110 151.1670 349° North 151 174 900 1,260 Climbing FlightAware
01:33AM -33.8910 151.1610 346° North 152 175 1,500 1,200 Climbing FlightAware
01:33AM -33.8850 151.1580 337° Northwest 149 171 1,700 1,500 Climbing FlightAware
01:34AM -33.8690 151.1390 315° West 151 174 2,500 1,680 Climbing FlightAware
01:34AM -33.8620 151.1290 310° West 153 176 3,000 1,320 Climbing FlightAware
01:35AM -33.8500 151.1120 310° West 175 201 3,400 960 Climbing FlightAware
01:36AM -33.8100 151.0570 311° West 250 288 4,400 1,740 Climbing FlightAware
01:36AM -33.7776 151.0151 311° West 254 292 6,200 2,640 Climbing Aus ATC (RADAR)
01:37AM -33.7480 150.9760 311° West 269 310 7,700 2,160 Climbing FlightAware
01:38AM -33.6910 150.9010 312° West 295 339 10,100 1,500 Climbing FlightAware
01:39AM -33.6070 150.7890 312° West 372 428 11,400 1,380 Climbing FlightAware
01:40AM -33.5718 150.7314 312° West 368 423 12,700 1,980 Climbing Aus ATC (RADAR)
01:40AM -33.5460 150.6840 312° West 386 444 13,600 1,980 Climbing FlightAware
01:41AM -33.5000 150.5980 303° West 391 450 15,400 2,640 Climbing FlightAware
01:42AM -33.4684 150.5415 303° West 380 437 16,700 2,100 Climbing Aus ATC (RADAR)
01:42AM -33.4530 150.5120 303° West 396 456 17,000 1,680 Climbing FlightAware
01:42AM -33.4176 150.4484 303° West 392 451 18,100 1,680 Climbing Aus ATC (RADAR)
01:42AM -33.4170 150.4460 303° West 408 470 18,000 1,560 Descending FlightAware
01:43AM -33.3808 150.3819 303° West 401 461 19,000 1,560 Climbing Aus ATC (RADAR)
01:43AM -33.3680 150.3580 303° West 418 481 19,200 1,860 Climbing FlightAware
01:44AM -33.3170 150.2658 303° West 408 470 20,900 1,860 Climbing Aus ATC (RADAR)
01:44AM -33.3220 150.2740 303° West 419 482 20,600 780 Descending FlightAware
01:45AM -33.2788 150.1970 303° West 418 481 21,400 840 Climbing Aus ATC (RADAR)
01:45AM -33.2850 150.2080 303° West 432 497 21,100 1,020 Descending FlightAware
01:45AM -33.2330 150.1140 303° West 438 504 22,200 1,560 Climbing FlightAware
01:46AM -33.2065 150.0661 303° West 430 495 22,800 1,200 Climbing Aus ATC (RADAR)
01:46AM -33.1830 150.0230 303° West 448 516 23,100 960 Climbing FlightAware
01:47AM -33.1290 149.9270 304° West 456 525 24,000 1,380 Climbing FlightAware
01:47AM -33.1027 149.8791 304° West 447 514 24,600 1,620 Climbing Aus ATC (RADAR)
01:47AM -33.0850 149.8475 304° West 449 517 24,900 540 Climbing Aus ATC (RADAR)
01:47AM -33.0830 149.8430 304° West 461 531 24,800 1,500 Descending FlightAware
01:48AM -33.0436 149.7737 304° West 452 520 25,800 1,320 Climbing Aus ATC (RADAR)
01:48AM -33.0280 149.7440 304° West 465 535 25,800 720 Level FlightAware
01:49AM -32.9800 149.6590 304° West 470 541 26,500 1,020 Climbing FlightAware
01:50AM -32.9260 149.5630 304° West 471 542 27,300 900 Climbing FlightAware
01:50AM -32.8750 149.4730 304° West 479 551 27,800 900 Climbing FlightAware
01:51AM -32.8490 149.4273 304° West 474 545 28,200 720 Climbing Aus ATC (RADAR)
01:51AM -32.8260 149.3850 304° West 488 562 28,300 840 Climbing FlightAware
01:51AM -32.7860 149.3155 304° West 481 554 28,900 900 Climbing Aus ATC (RADAR)
01:52AM -32.7670 149.2820 304° West 494 568 29,000 780 Climbing FlightAware
01:52AM -32.7287 149.2139 304° West 488 562 29,500 720 Climbing Aus ATC (RADAR)
01:52AM -32.7170 149.1940 304° West 498 573 29,500 1,200 Level FlightAware
01:53AM -32.6772 149.1236 304° West 489 563 30,300 1,200 Climbing Aus ATC (RADAR)
01:53AM -32.6590 149.0900 304° West 498 573 30,400 1,080 Climbing FlightAware
01:54AM -32.6062 148.9993 304° West 489 563 31,300 1,200 Climbing Aus ATC (RADAR)
01:54AM -32.6060 148.9980 304° West 495 570 31,200 1,320 Descending FlightAware
01:54AM -32.5611 148.9196 304° West 491 565 32,100 1,200 Climbing Aus ATC (RADAR)
01:54AM -32.5540 148.9070 304° West 494 568 32,000 1,020 Descending FlightAware
01:55AM -32.4950 148.8050 304° West 495 570 33,000 1,320 Climbing FlightAware
01:56AM -32.4450 148.7160 304° West 494 568 33,900 780 Climbing FlightAware
01:56AM -32.3990 148.6370 305° West 489 563 34,000 180 Climbing FlightAware
01:57AM -32.3362 148.5287 305° West 485 558 34,200  Climbing Aus ATC (RADAR)
01:57AM -32.3360 148.5270 305° West 492 566 34,000  Descending FlightAware
01:58AM -32.2722 148.4177 305° West 486 559 34,200  Climbing Aus ATC (RADAR)
01:59AM -32.1980 148.2900 305° West 492 566 34,000  Descending FlightAware
02:00AM -32.1437 148.1964 305° West 486 559 34,200  Climbing Aus ATC (RADAR)
02:00AM -32.1080 148.1350 305° West 491 565 34,000  Descending FlightAware
02:01AM -32.0791 148.0863 305° West 485 558 34,200 180 Climbing Aus ATC (RADAR)
02:01AM -32.0342 148.0093 304° West 485 558 34,200 -240 Level Aus ATC (RADAR)
02:01AM -32.0190 147.9830 304° West 490 564 34,000  Descending FlightAware
02:02AM -31.9375 147.8454 304° West 484 557 34,200  Climbing Aus ATC (RADAR)
02:03AM -31.9290 147.8290 304° West 486 559 34,000 -240 Descending FlightAware
02:03AM -31.8728 147.7349 304° West 484 557 34,000  Level Aus ATC (RADAR)
02:04AM -31.8190 147.6440 304° West 487 560 34,000  Level FlightAware
02:05AM -31.7640 147.5510 305° West 486 559 34,000  Level FlightAware
02:05AM -31.7060 147.4530 305° West 485 558 34,000  Level FlightAware
02:06AM -31.6721 147.3958 305° West 483 556 34,000  Level Aus ATC (RADAR)
02:06AM -31.6540 147.3650 305° West 484 557 34,000  Level FlightAware
02:07AM -31.5960 147.2680 305° West 483 556 34,000  Level FlightAware
02:08AM -31.5384 147.1822 305° West 490 564 34,000  Level Aus ATC (RADAR)
02:08AM -31.5400 147.1860 305° West 495 570 34,000  Level FlightAware
02:08AM -31.5065 147.1437 305° West 494 568 34,000  Level Aus ATC (RADAR)
02:08AM -31.4720 147.1110 305° West 493 567 34,000  Level FlightAware
02:09AM -31.3950 147.0300 318° Northwest 496 571 34,000  Level FlightAware
02:09AM -31.3512 146.9843 318° Northwest 492 566 34,000  Level Aus ATC (RADAR)
02:10AM -31.3270 146.9580 318° Northwest 495 570 34,000 300 Level FlightAware
02:10AM -31.2919 146.9216 318° Northwest 491 565 34,200 1,440 Climbing Aus ATC (RADAR)
02:10AM -31.2510 146.8790 318° Northwest 482 555 35,100 1,680 Climbing FlightAware
02:11AM -31.1911 146.8161 318° Northwest 483 556 35,900 540 Climbing Aus ATC (RADAR)
02:11AM -31.1650 146.7860 318° Northwest 479 551 35,600 60 Descending FlightAware
02:12AM -31.0995 146.7203 318° Northwest 481 554 36,000  Climbing Aus ATC (RADAR)
02:12AM -31.1100 146.7260 318° Northwest 479 551 35,600  Descending FlightAware
02:12AM -31.0329 146.6505 318° Northwest 482 555 36,000  Climbing Aus ATC (RADAR)
02:13AM -31.0550 146.6660 318° Northwest 479 551 35,600  Descending FlightAware
02:13AM -30.9481 146.5634 318° Northwest 484 557 36,000  Climbing Aus ATC (RADAR)
02:13AM -30.9860 146.5910 318° Northwest 479 551 35,600 -540 Descending FlightAware
02:14AM -30.9310 146.5310 317° Northwest 479 551 35,600  Level FlightAware
02:15AM -30.8760 146.4710 317° Northwest 479 551 35,600  Level FlightAware
02:15AM -30.8210 146.4110 317° Northwest 479 551 35,600  Level FlightAware
02:16AM -30.7520 146.3370 317° Northwest 479 551 35,600  Level FlightAware
02:17AM -30.6970 146.2770 317° Northwest 479 551 35,600  Level FlightAware
02:18AM -30.6420 146.2170 317° Northwest 479 551 35,600  Level FlightAware
02:18AM -30.5870 146.1580 317° Northwest 479 551 35,600  Level FlightAware
02:19AM -30.5320 146.0980 317° Northwest 479 551 35,600  Level FlightAware
02:20AM -30.4760 146.0380 317° Northwest 479 551 35,600  Level FlightAware
02:20AM -30.2077 145.8022 144° Southeast 36,000  Climbing Aus ATC (Calculated)
02:20AM -30.4210 145.9790 317° Northwest 479 551 35,600  Descending FlightAware
02:23AM -29.9823 145.5737 319° Northwest  Level FlightAware Approximate
02:24AM -29.8883 145.4787 319° Northwest  Level FlightAware Approximate
02:24AM -29.9079 145.3638 309° West 36,000  Level Aus ATC (Calculated)
02:25AM -29.9823 145.5737 139° Southeast  Level FlightAware Approximate
02:26AM -29.8441 145.4038 306° West  Level FlightAware Approximate
02:27AM -29.7714 145.2867 306° West  Level FlightAware Approximate
02:28AM -29.6986 145.1698 306° West  Level FlightAware Approximate
02:29AM -29.6257 145.0531 306° West  Level FlightAware Approximate
02:29AM -29.5123 144.7924 309° West 36,000  Level Aus ATC (Calculated)
02:30AM -29.5527 144.9365 306° West  Level FlightAware Approximate
02:31AM -29.4796 144.8201 306° West  Level FlightAware Approximate
02:32AM -29.2919 144.4776 309° West  Level FlightAware Approximate
02:32AM -29.1926 144.3365 310° West 36,000  Level Aus ATC (Calculated)
02:34AM -29.1002 144.2057 309° West  Level FlightAware Approximate
02:34AM -29.0964 144.2003 310° West 36,000  Level Aus ATC (Calculated)
02:35AM -29.0198 144.0922 309° West  Level FlightAware Approximate
02:36AM -28.9754 144.0313 310° West  Level FlightAware Approximate
02:36AM -28.8779 143.9005 310° West 36,000  Level Aus ATC (Calculated)
02:37AM -28.8944 143.9226 310° West  Level FlightAware Approximate
02:38AM -28.7603 143.7433 310° West  Level FlightAware Approximate
02:39AM -28.6790 143.6351 311° West  Level FlightAware Approximate
02:40AM -28.5977 143.5270 311° West  Level FlightAware Approximate
02:41AM -28.5163 143.4191 311° West  Level FlightAware Approximate
02:41AM -28.4489 143.3301 311° West 36,000  Level Aus ATC (Calculated)
02:42AM -28.3674 143.2225 311° West  Level FlightAware Approximate
02:42AM -28.4350 143.3110 311° West 36,000  Level FlightAware
02:44AM -28.3160 143.1540 311° West 463 533 36,000  Level FlightAware
02:44AM -28.2700 143.0950 312° West 463 533 36,000  Level FlightAware
02:45AM -28.2030 143.0060 310° West 464 534 36,000  Level FlightAware
02:46AM -28.0176 142.7642 131° Southeast 36,000  Level Aus ATC (Calculated)
02:46AM -28.1360 142.9190 311° West 463 533 36,000  Level FlightAware
02:46AM -28.0870 142.8540 311° West 463 533 36,000  Level FlightAware
02:47AM -28.0040 142.7450 311° West 463 533 36,000  Level FlightAware
02:48AM -27.9570 142.6810 310° West 463 533 36,000  Level FlightAware
02:49AM -27.9100 142.6180 310° West 463 533 36,000  Level FlightAware
02:50AM -27.8070 142.4890 312° West 462 532 36,000  Level FlightAware
02:50AM -27.5839 142.2029 131° Southeast 36,000  Level Aus ATC (Calculated)
02:51AM -27.7440 142.4090 312° West 463 533 36,000  Level FlightAware
02:51AM -27.6840 142.3320 312° West 464 534 36,000  Level FlightAware
02:52AM -27.6180 142.2460 311° West 462 532 36,000  Level FlightAware
02:53AM -27.3974 141.9636 131° Southeast 36,000  Level Aus ATC (Calculated)
02:53AM -27.3974 141.9636 131° Southeast 36,000  Level Aus ATC (Calculated)
02:53AM -27.5430 142.1500 311° West 464 534 36,000  Level FlightAware
02:54AM -27.4900 142.0820 311° West 464 534 36,000  Level FlightAware
02:54AM -27.4130 141.9830 311° West 465 535 36,000  Level FlightAware
02:55AM -27.3540 141.9080 312° West 465 535 36,000  Level FlightAware
02:55AM -27.1480 141.6459 132° Southeast 36,000  Level Aus ATC (Calculated)
02:56AM -27.2750 141.8070 311° West 465 535 36,000  Level FlightAware
02:57AM -27.1880 141.6970 311° West 464 534 36,000  Level FlightAware
02:58AM -27.1360 141.6300 311° West 464 534 36,000  Level FlightAware
02:58AM -27.0660 141.5420 312° West 465 535 36,000  Level FlightAware
02:59AM -27.0080 141.4680 311° West 466 536 36,000  Level FlightAware
03:00AM -26.7725 141.1719 132° Southeast 36,000  Level Aus ATC (Calculated)
03:00AM -26.9450 141.3890 312° West 466 536 36,000  Level FlightAware
03:00AM -26.7098 141.0932 132° Southeast 36,000  Level Aus ATC (Calculated)
03:01AM -26.8710 141.2960 312° West 466 536 36,000  Level FlightAware
03:01AM -26.8070 141.2160 312° West 466 536 36,000  Level FlightAware
03:02AM -26.7600 141.1570 312° West 466 536 36,000  Level FlightAware
03:03AM -26.6980 141.0780 311° West 466 536 36,000  Level FlightAware
03:04AM -26.6290 140.9920 312° West 468 539 36,000  Level FlightAware
03:04AM -26.5670 140.9150 312° West 468 539 36,000  Level FlightAware
03:05AM -26.5120 140.8450 311° West 468 539 36,000  Level FlightAware
03:05AM -26.2695 140.5447 132° Southeast 36,000  Level Aus ATC (Calculated)
03:06AM -26.4450 140.7620 311° West 466 536 36,000  Level FlightAware
03:07AM -26.3670 140.6640 312° West 468 539 36,000  Level FlightAware
03:07AM -26.0801 140.3109 132° Southeast 36,000  Level Aus ATC (Calculated)
03:08AM -26.2850 140.5650 313° West 466 536 36,000  Level FlightAware
03:08AM -26.2360 140.5020 311° West 466 536 36,000  Level FlightAware
03:09AM -26.1760 140.4240 311° West 466 536 36,000  Level FlightAware
03:10AM -25.8904 140.0779 132° Southeast 36,000  Level Aus ATC (Calculated)
03:10AM -26.0630 140.2890 311° West 468 539 36,000  Level FlightAware
03:10AM -25.8271 140.0004 132° Southeast 36,000  Level Aus ATC (Calculated)
03:11AM -26.0020 140.2140 312° West 468 539 36,000  Level FlightAware
03:12AM -25.7003 139.8456 132° Southeast 36,000  Level Aus ATC (Calculated)
03:12AM -25.9520 140.1540 312° West 468 539 36,000  Level FlightAware
03:12AM -25.8910 140.0780 312° West 468 539 36,000  Level FlightAware
03:13AM -25.8420 140.0170 312° West 468 539 36,000  Level FlightAware
03:14AM -25.7920 139.9560 312° West 468 539 36,000  Level FlightAware
03:14AM -25.7430 139.8950 312° West 468 539 36,000  Level FlightAware
03:15AM -25.6940 139.8340 312° West 468 539 36,000  Level FlightAware
03:15AM -25.3826 139.4600 133° Southeast 36,000  Level Aus ATC (Calculated)
03:16AM -25.6320 139.7590 312° West 468 539 36,000  Level FlightAware
03:17AM -25.5830 139.6980 312° West 468 539 36,000  Level FlightAware
03:17AM -25.5340 139.6370 312° West 468 539 36,000  Level FlightAware
03:18AM -25.4720 139.5620 312° West 468 539 36,000  Level FlightAware
03:19AM -25.4230 139.5010 312° West 468 539 36,000  Level FlightAware
03:19AM -25.3740 139.4400 312° West 468 539 36,000  Level FlightAware
03:20AM -25.3240 139.3800 313° West 468 539 36,000 120 Level FlightAware
03:20AM -24.9306 138.8991 307° West 38,000 120 Climbing Aus ATC (Calculated)
03:21AM -24.8611 138.7982 307° West 38,000 -60 Level Aus ATC (Calculated)
03:22AM -24.7916 138.6975 307° West 38,000 -60 Level Aus ATC (Calculated)
03:23AM -24.9487 138.9253 127° Southeast  Level FlightAware Approximate
03:23AM -24.6871 138.5466 307° West 38,000  Level Aus ATC (Calculated)
03:24AM -24.8911 138.8418 127° Southeast  Level FlightAware Approximate
03:25AM -24.7641 138.6578 127° Southeast  Level FlightAware Approximate
03:26AM -24.6965 138.5422 307° West  Level Estimated
03:27AM -24.6204 138.4332 308° West  Level FlightAware Approximate
03:28AM -24.5442 138.3244 308° West  Level FlightAware Approximate
03:28AM -24.3379 138.0456 308° West 38,000  Level Aus ATC (Calculated)
03:29AM -24.2678 137.9457 308° West 38,000 -60 Level Aus ATC (Calculated)
03:29AM -24.2678 137.9457 308° West 38,000 -60 Level Aus ATC (Calculated)
03:31AM -24.1458 137.7722 308° West  Level FlightAware Approximate
03:31AM -24.1276 137.7462 128° Southeast 38,000  Level Aus ATC (Calculated)
03:32AM -24.0694 137.6638 308° West  Level FlightAware Approximate
03:33AM -23.9947 137.5581 308° West  Level FlightAware Approximate
03:33AM -24.1950 137.8420 308° West 455 524 37,800  Level FlightAware
03:33AM -24.1360 137.7590 308° West 450 518 38,000 120 Climbing FlightAware
03:34AM -24.0850 137.6850 307° West 452 520 38,000  Level FlightAware
03:35AM -24.0140 137.5850 308° West 454 522 38,000  Level FlightAware
03:36AM -23.9580 137.5060 308° West 455 524 38,000  Level FlightAware
03:36AM -23.7404 137.2000 128° Southeast 38,000  Level Aus ATC (Calculated)
03:36AM -23.9090 137.4380 308° West 454 522 38,000  Level FlightAware
03:37AM -23.8580 137.3650 307° West 454 522 38,000  Level FlightAware
03:38AM -23.8080 137.2950 307° West 453 521 38,000  Level FlightAware
03:38AM -23.5991 137.0021 128° Southeast 38,000  Level Aus ATC (Calculated)
03:38AM -23.7590 137.2240 307° West 453 521 38,000  Level FlightAware
03:39AM -23.6930 137.1340 309° West 455 524 38,000  Level FlightAware
03:40AM -23.6420 137.0630 308° West 456 525 38,000  Level FlightAware
03:40AM -23.5830 136.9800 308° West 456 525 38,000  Level FlightAware
03:40AM -23.3868 136.7061 128° Southeast 38,000  Level Aus ATC (Calculated)
03:41AM -23.5300 136.9060 308° West 457 526 38,000  Level FlightAware
03:42AM -23.4870 136.8460 308° West 457 526 38,000  Level FlightAware
03:42AM -23.4260 136.7610 308° West 456 525 38,000  Level FlightAware
03:42AM -23.2094 136.4602 128° Southeast 38,000  Level Aus ATC (Calculated)
03:43AM -23.2094 136.4602 128° Southeast 38,000  Level Aus ATC (Calculated)
03:43AM -23.3610 136.6710 308° West 455 524 38,000  Level FlightAware
03:43AM -23.1383 136.3620 128° Southeast 38,000  Level Aus ATC (Calculated)
03:44AM -23.3100 136.6000 308° West 455 524 38,000  Level FlightAware
03:44AM -23.0672 136.2639 128° Southeast 38,000  Level Aus ATC (Calculated)
03:45AM -23.2550 136.5230 308° West 457 526 38,000  Level FlightAware
03:45AM -23.1980 136.4440 308° West 457 526 38,000  Level FlightAware
03:46AM -23.1450 136.3710 308° West 456 525 38,000  Level FlightAware
03:47AM -23.0910 136.2960 308° West 457 526 38,000  Level FlightAware
03:47AM -23.0450 136.2330 308° West 457 526 38,000  Level FlightAware
03:48AM -22.8177 135.9214 128° Southeast 38,000  Level Aus ATC (Calculated)
03:48AM -22.9760 136.1390 308° West 457 526 38,000  Level FlightAware
03:49AM -22.9220 136.0650 308° West 457 526 38,000  Level FlightAware
03:50AM -22.8760 136.0000 308° West 457 526 38,000  Level FlightAware
03:50AM -22.8140 135.9170 309° West 457 526 38,000  Level FlightAware
03:51AM -22.7610 135.8430 308° West 457 526 38,000  Level FlightAware
03:51AM -22.5685 135.4918 120° Southeast 38,000  Level Aus ATC (Calculated)
03:52AM -22.7090 135.7540 308° West 453 521 38,000  Level FlightAware
03:52AM -22.6680 135.6760 300° West 453 521 38,000  Level FlightAware
03:53AM -22.6200 135.5890 301° West 455 524 38,000  Level FlightAware
03:54AM -22.5790 135.5120 300° West 456 525 38,000  Level FlightAware
03:55AM -22.5330 135.4250 300° West 456 525 38,000  Level FlightAware
03:55AM -22.4880 135.3430 301° West 455 524 38,000  Level FlightAware
03:56AM -22.4450 135.2630 300° West 454 522 38,000  Level FlightAware
03:56AM -22.2556 134.9128 120° Southeast 38,000  Level Aus ATC (Calculated)
03:57AM -22.3990 135.1770 300° West 455 524 38,000  Level FlightAware
03:57AM -22.3600 135.1050 300° West 455 524 38,000  Level FlightAware
03:57AM -22.1658 134.7478 121° Southeast 38,000  Level Aus ATC (Calculated)
03:58AM -22.3070 135.0070 300° West 456 525 38,000  Level FlightAware
03:58AM -22.0759 134.5830 120° Southeast 38,000  Level Aus ATC (Calculated)
03:59AM -22.2650 134.9310 301° West 456 525 38,000  Level FlightAware
03:59AM -22.2290 134.8630 301° West 455 524 38,000  Level FlightAware
04:00AM -22.1800 134.7730 300° West 455 524 38,000  Level FlightAware
04:01AM -22.1320 134.6850 300° West 456 525 38,000  Level FlightAware
04:01AM -21.9407 134.3363 121° Southeast 38,000  Level Aus ATC (Calculated)
04:02AM -22.0830 134.5960 300° West 456 525 38,000  Level FlightAware
04:02AM -22.0390 134.5170 301° West 458 527 38,000  Level FlightAware
04:03AM -22.0050 134.4540 300° West 457 526 38,000  Level FlightAware
04:04AM -21.9510 134.3560 301° West 457 526 38,000  Level FlightAware
04:04AM -21.9060 134.2740 301° West 457 526 38,000  Level FlightAware
04:05AM -21.8650 134.2000 301° West 458 527 38,000  Level FlightAware
04:06AM -21.8150 134.1080 300° West 459 528 38,000  Level FlightAware
04:06AM -21.5783 133.6806 121° Southeast 38,000  Level Aus ATC (Calculated)
04:06AM -21.5783 133.6806 121° Southeast 38,000  Level Aus ATC (Calculated)
04:06AM -21.7700 134.0260 300° West 462 532 38,000  Level FlightAware
04:07AM -21.7260 133.9470 300° West 462 532 38,000  Level FlightAware
04:08AM -21.6790 133.8630 301° West 462 532 38,000  Level FlightAware
04:08AM -21.6350 133.7840 301° West 461 531 38,000  Level FlightAware
04:09AM -21.5910 133.7030 300° West 460 529 38,000  Level FlightAware
04:10AM -21.5430 133.6170 301° West 460 529 38,000  Level FlightAware
04:11AM -21.4910 133.5240 301° West 461 531 38,000  Level FlightAware
04:11AM -21.3048 133.1909 121° Southeast 38,000  Level Aus ATC (Calculated)
04:11AM -21.2681 133.1288 121° Southeast 38,000  Level Aus ATC (Calculated)
04:11AM -21.4830 133.5100 301° West 462 532 38,000  Level FlightAware
04:12AM -21.4410 133.4330 301° West 462 532 38,000  Level FlightAware
04:13AM -21.3530 133.2770 301° West 462 532 38,000  Level FlightAware
04:13AM -21.3110 133.2020 301° West 461 531 38,000  Level FlightAware
04:13AM -21.0845 132.8188 123° Southeast 38,000  Level Aus ATC (Calculated)
04:14AM -21.2600 133.1140 301° West 461 531 38,000  Level FlightAware
04:15AM -21.2130 133.0360 303° West 460 529 38,000  Level FlightAware
04:15AM -21.1670 132.9590 303° West 460 529 38,000  Level FlightAware
04:16AM -21.1180 132.8750 302° West 460 529 38,000  Level FlightAware
04:17AM -21.0700 132.7950 303° West 462 532 38,000  Level FlightAware
04:18AM -21.0190 132.7090 302° West 465 535 38,000  Level FlightAware
04:18AM -20.9730 132.6320 303° West 466 536 38,000  Level FlightAware
04:18AM -20.7526 132.2627 123° Southeast 38,000  Level Aus ATC (Calculated)
04:19AM -20.9270 132.5540 303° West 465 535 38,000  Level FlightAware
04:20AM -20.8730 132.4640 303° West 464 534 38,000  Level FlightAware
04:20AM -20.8270 132.3870 303° West 464 534 38,000  Level FlightAware
04:21AM -20.7760 132.3020 303° West 467 537 38,000  Level FlightAware
04:22AM -20.7300 132.2250 303° West 467 537 38,000  Level FlightAware
04:23AM -20.6770 132.1380 303° West 466 536 38,000  Level FlightAware
04:23AM -20.6320 132.0620 302° West 464 534 38,000  Level FlightAware
04:24AM -20.4188 131.7090 123° Southeast 38,000  Level Aus ATC (Calculated)
04:24AM -20.3817 131.6476 123° Southeast 38,000  Level Aus ATC (Calculated)
04:24AM -20.5870 131.9870 302° West 465 535 38,000  Level FlightAware
04:25AM -20.5320 131.8950 303° West 466 536 38,000  Level FlightAware
04:26AM -20.4670 131.7880 303° West 466 536 38,000  Level FlightAware
04:26AM -20.2327 131.4024 123° Southeast 38,000  Level Aus ATC (Calculated)
04:26AM -20.4200 131.7100 303° West 466 536 38,000  Level FlightAware
04:27AM -20.3670 131.6230 303° West 466 536 38,000  Level FlightAware
04:28AM -20.1207 131.2188 123° Southeast 38,000  Level Aus ATC (Calculated)
04:28AM -20.3220 131.5490 303° West 466 536 38,000  Level FlightAware
04:28AM -20.2730 131.4680 303° West 466 536 38,000  Level FlightAware
04:29AM -20.2270 131.3940 303° West 467 537 38,000  Level FlightAware
04:30AM -20.1730 131.3050 303° West 469 540 38,000  Level FlightAware
04:30AM -20.1200 131.2170 303° West 470 541 38,000  Level FlightAware
04:31AM -19.8962 130.8524 123° Southeast 38,000  Level Aus ATC (Calculated)
04:31AM -20.0720 131.1390 303° West 471 542 38,000  Level FlightAware
04:32AM -20.0260 131.0640 303° West 470 541 38,000  Level FlightAware
04:33AM -19.9720 130.9760 303° West 471 542 38,000  Level FlightAware
04:33AM -19.9250 130.8980 303° West 472 543 38,000  Level FlightAware
04:34AM -19.8770 130.8200 303° West 472 543 38,000  Level FlightAware
04:34AM -19.8370 130.7560 304° West 472 543 38,000  Level FlightAware
04:35AM -19.7770 130.6590 303° West 471 542 38,000  Level FlightAware
04:36AM -19.5581 130.3047 123° Southeast 38,000  Level Aus ATC (Calculated)
04:36AM -19.7210 130.5680 303° West 471 542 38,000  Level FlightAware
04:37AM -19.6730 130.4910 303° West 470 541 38,000  Level FlightAware
04:37AM -19.6190 130.4030 303° West 469 540 38,000  Level FlightAware
04:38AM -19.5610 130.3080 303° West 469 540 38,000  Level FlightAware
04:39AM -19.5200 130.2420 303° West 469 540 38,000  Level FlightAware
04:40AM -19.4800 130.1770 303° West 469 540 38,000  Level FlightAware
04:40AM -19.4400 130.1110 303° West 469 540 38,000  Level FlightAware
04:41AM -19.1804 129.6988 124° Southeast 38,000  Level Aus ATC (Calculated)
04:41AM -19.4000 130.0450 303° West 469 540 38,000  Level FlightAware
04:42AM -19.3500 129.9630 303° West 469 540 38,000  Level FlightAware
04:43AM -19.3100 129.8980 303° West 469 540 38,000  Level FlightAware
04:43AM -19.2690 129.8320 303° West 469 540 38,000  Level FlightAware
04:44AM -18.9908 129.3969 124° Southeast 38,000  Level Aus ATC (Calculated)
04:44AM -19.2290 129.7670 303° West 469 540 38,000  Level FlightAware
04:45AM -19.1890 129.7010 303° West 469 540 38,000  Level FlightAware
04:45AM -19.1490 129.6360 303° West 469 540 38,000  Level FlightAware
04:46AM -19.0990 129.5540 303° West 469 540 38,000  Level FlightAware
04:47AM -19.0580 129.4880 303° West 469 540 38,000  Level FlightAware
04:47AM -19.0180 129.4230 303° West 469 540 38,000  Level FlightAware
04:48AM -18.6864 128.9153 125° Southeast 38,000  Level Aus ATC (Calculated)
04:48AM -18.9780 129.3570 303° West 469 540 38,000  Level FlightAware
04:49AM -18.9280 129.2760 303° West 469 540 38,000  Level FlightAware
04:50AM -18.8880 129.2100 303° West 469 540 38,000  Level FlightAware
04:50AM -18.8470 129.1450 303° West 469 540 38,000  Level FlightAware
04:51AM -18.8070 129.0800 303° West 469 540 38,000  Level FlightAware
04:52AM -18.7670 129.0140 303° West 469 540 38,000  Level FlightAware
04:52AM -18.7270 128.9490 303° West 469 540 38,000  Level FlightAware
04:53AM -18.3425 128.3754 304° West 38,000  Level Aus ATC (Calculated)
04:55AM -18.2151 128.1766 304° West  Level FlightAware Approximate
04:56AM -18.1436 128.0652 304° West  Level FlightAware Approximate
04:57AM -18.0720 127.9539 304° West  Level FlightAware Approximate
04:58AM -18.0003 127.8427 304° West  Level FlightAware Approximate
04:58AM -17.9586 127.7781 304° West 38,000  Level Aus ATC (Calculated)
05:00AM -17.8294 127.5783 304° West  Level FlightAware Approximate
05:01AM -17.7575 127.4674 304° West  Level FlightAware Approximate
05:02AM -17.6856 127.3566 304° West  Level FlightAware Approximate
05:03AM -17.6136 127.2459 304° West  Level FlightAware Approximate
05:03AM -17.6115 127.2428 304° West 38,000  Level Aus ATC (Calculated)
05:05AM -17.4818 127.0437 304° West  Level FlightAware Approximate
05:06AM -17.4096 126.9332 304° West  Level FlightAware Approximate
05:06AM -17.3793 126.8870 304° West 38,000  Level Aus ATC (Calculated)
05:08AM -17.2372 126.6700 304° West  Level FlightAware Approximate
05:08AM -17.2242 126.6503 304° West 38,000  Level Aus ATC (Calculated)
05:10AM -17.0926 126.4502 305° West  Level FlightAware Approximate
05:11AM -17.0201 126.3402 305° West  Level FlightAware Approximate
05:12AM -16.9476 126.2303 305° West  Level FlightAware Approximate
05:13AM -16.8750 126.1205 305° West  Level FlightAware Approximate
05:13AM -16.8741 126.1191 304° West 38,000  Level Aus ATC (Calculated)
05:15AM -16.7420 125.9198 305° West  Level FlightAware Approximate
05:16AM -16.6692 125.8102 305° West  Level FlightAware Approximate
05:17AM -16.5964 125.7007 305° West  Level FlightAware Approximate
05:18AM -16.5235 125.5913 305° West  Level FlightAware Approximate
05:18AM -16.5226 125.5899 304° West 38,000  Level Aus ATC (Calculated)
05:20AM -16.3815 125.3786 305° West  Level FlightAware Approximate
05:21AM -16.4545 125.4879 125° Southeast  Level FlightAware Approximate
05:21AM -16.2750 125.1851 305° West 40,000  Level Aus ATC (Calculated)
05:22AM -16.3815 125.3786 305° West  Level FlightAware Approximate
05:23AM -16.3753 125.3553 122° Southeast  Level FlightAware Approximate
05:24AM -16.4420 125.4688 122° Southeast  Level FlightAware Approximate
05:24AM -16.0374 124.7835 305° West 40,000  Level Aus ATC (Calculated)
05:25AM -16.5088 125.5824 122° Southeast  Level FlightAware Approximate
05:26AM -15.9409 124.6568 301° West  Level Estimated
05:26AM -15.9353 124.6117 305° West 40,000  Level Aus ATC (Calculated)
05:26AM -15.9353 124.6117 305° West 40,000  Level Aus ATC (Calculated)
05:28AM -15.8345 124.4423 302° West  Level FlightAware Approximate
05:29AM -15.7672 124.3295 302° West  Level FlightAware Approximate
05:30AM -15.6998 124.2167 302° West  Level FlightAware Approximate
05:31AM -15.6324 124.1040 302° West  Level FlightAware Approximate
05:31AM -15.5941 124.0401 305° West 40,000  Level Aus ATC (Calculated)
05:32AM -15.5649 123.9914 302° West  Level FlightAware Approximate
05:33AM -15.4917 123.8695 302° West  Level FlightAware Approximate
05:34AM -15.4241 123.7570 302° West  Level FlightAware Approximate
05:35AM -15.3565 123.6446 302° West  Level FlightAware Approximate
05:36AM -15.2887 123.5323 302° West  Level FlightAware Approximate
05:37AM -15.2210 123.4201 302° West  Level FlightAware Approximate
05:37AM -15.2171 123.4136 306° West 40,000  Level Aus ATC (Calculated)
05:37AM -15.2171 123.4136 306° West 40,000  Level Aus ATC (Calculated)
05:39AM -15.0870 123.1987 302° West  Level FlightAware Approximate
05:40AM -15.0191 123.0867 302° West  Level FlightAware Approximate
05:41AM -14.9511 122.9747 302° West  Level FlightAware Approximate
05:41AM -14.9073 122.9027 306° West 40,000  Level Aus ATC (Calculated)
05:42AM -14.8831 122.8629 302° West  Level FlightAware Approximate
05:43AM -14.8040 122.7331 302° West  Level FlightAware Approximate
05:43AM -14.7347 122.6194 307° West 40,000  Level Aus ATC (Calculated)
05:44AM -14.7358 122.6214 302° West  Level FlightAware Approximate
05:45AM -14.6630 122.5022 302° West  Level FlightAware Approximate
05:46AM -14.5948 122.3906 302° West  Level FlightAware Approximate
05:46AM -14.5617 122.3366 307° West 40,000  Level Aus ATC (Calculated)
05:47AM -14.5264 122.2791 302° West  Level FlightAware Approximate
05:48AM -14.4569 122.1657 302° West  Level FlightAware Approximate
05:49AM -14.3885 122.0544 302° West  Level FlightAware Approximate
05:50AM -14.3200 121.9431 302° West  Level FlightAware Approximate
05:51AM -14.2514 121.8318 302° West  Level FlightAware Approximate
05:51AM -14.2148 121.7724 307° West 40,000  Level Aus ATC (Calculated)
05:53AM -14.1096 121.6020 302° West  Level FlightAware Approximate
05:54AM -14.0409 121.4910 303° West  Level FlightAware Approximate
05:55AM -13.9721 121.3800 303° West  Level FlightAware Approximate
05:56AM -13.9033 121.2691 303° West  Level FlightAware Approximate
05:56AM -13.9014 121.2660 308° West 40,000  Level Aus ATC (Calculated)
05:56AM -13.8665 121.2098 308° West 40,000  Level Aus ATC (Calculated)
05:58AM -13.7724 121.0584 303° West  Level FlightAware Approximate
05:59AM -13.7035 120.9477 303° West  Level FlightAware Approximate
05:59AM -13.6919 120.9291 308° West 40,000  Level Aus ATC (Calculated)
06:00AM -13.6220 120.8170 309° West 40,000  Level Aus ATC (Calculated)
06:00AM -13.5520 120.7049 309° West 40,000  Level Aus ATC (Calculated)
06:01AM -13.5170 120.6489 309° West 40,000  Level Aus ATC (Calculated)
06:02AM -13.4679 120.5705 303° West  Level FlightAware Approximate
06:03AM -13.4052 120.4703 303° West  Level FlightAware Approximate
06:03AM -13.3417 120.3690 309° West 40,000  Level Aus ATC (Calculated)
06:04AM -13.3360 120.3600 303° West  Level FlightAware Approximate
06:05AM -13.2575 120.2348 303° West  Level FlightAware Approximate
06:05AM -13.2364 120.2013 310° West 40,000  Level Aus ATC (Calculated)
06:06AM -13.2013 120.1455 310° West 40,000  Level Aus ATC (Calculated)
06:06AM -13.2013 120.1455 310° West 40,000  Level Aus ATC (Calculated)
06:08AM -13.0649 119.9288 303° West  Level FlightAware Approximate
06:09AM -12.9955 119.8188 303° West  Level FlightAware Approximate
06:10AM -12.9260 119.7088 303° West  Level FlightAware Approximate
06:11AM -12.8565 119.5989 303° West  Level FlightAware Approximate
06:11AM -12.8141 119.5319 311° West 40,000  Level Aus ATC (Calculated)
06:13AM -12.7201 119.3837 303° West  Level FlightAware Approximate
06:14AM -12.6505 119.2739 303° West  Level FlightAware Approximate
06:14AM -12.6023 119.1981 312° West 40,000  Level Aus ATC (Calculated)
06:15AM -12.5670 119.1425 312° West 40,000  Level Aus ATC (Calculated)
06:17AM -12.4333 118.9324 303° West  Level FlightAware Approximate
06:18AM -12.3634 118.8229 303° West  Level FlightAware Approximate
06:19AM -12.2935 118.7134 303° West  Level FlightAware Approximate
06:20AM -12.2236 118.6040 303° West  Level FlightAware Approximate
06:20AM -12.2130 118.5874 315° West 40,000  Level Aus ATC (Calculated)
06:21AM -12.1537 118.4947 303° West  Level FlightAware Approximate
06:21AM -12.1065 118.4211 316° Northwest 40,000  Level Aus ATC (Calculated)
06:23AM -12.0120 118.2737 303° West  Level FlightAware Approximate
06:23AM -11.9495 118.2062 317° Northwest 40,000  Level Aus ATC (Calculated)
06:24AM -11.9419 118.1645 303° West  Level FlightAware Approximate
06:25AM -12.0748 118.3273 137° Southeast  Level FlightAware Approximate
06:25AM -11.7978 118.0598 317° Northwest 40,000  Level Aus ATC (Calculated)
06:26AM -11.6967 117.9623 317° Northwest 40,000  Level Aus ATC (Calculated)
06:28AM -11.8376 118.0982 137° Southeast  Level FlightAware Approximate
06:28AM -11.4944 117.7676 317° Northwest 40,000  Level Aus ATC (Calculated)
06:29AM -11.3931 117.6703 317° Northwest 40,000  Level Aus ATC (Calculated)
06:30AM -11.6229 117.8913 137° Southeast  Level FlightAware Approximate
06:31AM -11.2771 117.5402 317° Northwest  Level Estimated
06:32AM -11.1837 117.4514 317° Northwest  Level FlightAware Approximate
06:32AM -11.0893 117.3789 317° Northwest 40,000  Level Aus ATC (Calculated)
06:33AM -11.0903 117.3626 317° Northwest  Level FlightAware Approximate
06:34AM -10.9946 117.2883 317° Northwest  Level FlightAware Approximate
06:35AM -10.9015 117.1992 317° Northwest  Level FlightAware Approximate
06:35AM -10.7851 117.0881 317° Northwest 40,000  Level Aus ATC (Calculated)
06:36AM -10.8083 117.1103 317° Northwest  Level FlightAware Approximate
06:37AM -10.6903 116.9977 317° Northwest  Level FlightAware Approximate
06:38AM -10.5971 116.9088 317° Northwest  Level FlightAware Approximate
06:39AM -10.5039 116.8200 317° Northwest  Level FlightAware Approximate
06:40AM -10.4106 116.7312 317° Northwest  Level FlightAware Approximate
06:41AM -10.3174 116.6425 317° Northwest  Level FlightAware Approximate
06:42AM -10.2240 116.5539 317° Northwest  Level FlightAware Approximate
06:43AM -10.1307 116.4653 317° Northwest  Level FlightAware Approximate
06:44AM -10.0373 116.3767 317° Northwest  Level FlightAware Approximate
06:45AM -9.9440 116.2882 317° Northwest  Level FlightAware Approximate
06:45AM -10.2790 116.6060 317° Northwest 458 527 40,000  Level FlightAware
06:45AM -10.2170 116.5470 317° Northwest 457 526 40,000  Level FlightAware
06:46AM -10.1510 116.4850 317° Northwest 457 526 40,000  Level FlightAware
06:47AM -10.0780 116.4160 317° Northwest 457 526 40,000  Level FlightAware
06:47AM -10.0150 116.3550 316° Northwest 457 526 40,000  Level FlightAware
06:48AM -9.9640 116.3070 317° Northwest 457 526 40,000  Level FlightAware
06:49AM -9.8840 116.2310 317° Northwest 455 524 40,000  Level FlightAware
06:49AM -9.8210 116.1720 317° Northwest 454 522 40,000  Level FlightAware
06:50AM -9.7540 116.1090 317° Northwest 454 522 40,000  Level FlightAware
06:51AM -9.6930 116.0510 317° Northwest 452 520 40,000  Level FlightAware
06:52AM -9.6300 115.9910 317° Northwest 450 518 40,000  Level FlightAware
06:52AM -9.5610 115.9260 317° Northwest 452 520 40,000  Level FlightAware
06:53AM -9.4980 115.8670 317° Northwest 453 521 40,000  Level FlightAware
06:54AM -9.4310 115.8030 317° Northwest 454 522 40,000  Level FlightAware
06:54AM -9.3700 115.7460 317° Northwest 453 521 40,000  Level FlightAware
06:55AM -9.3080 115.6870 317° Northwest 452 520 40,000  Level FlightAware
06:56AM -9.2370 115.6210 317° Northwest 452 520 40,000  Level FlightAware
06:56AM -9.1790 115.5660 317° Northwest 454 522 40,000  Level FlightAware
06:57AM -9.1070 115.4990 317° Northwest 458 527 40,000  Level FlightAware
06:58AM -9.0460 115.4410 317° Northwest 459 528 40,000  Level FlightAware
06:59AM -8.9830 115.3820 317° Northwest 459 528 40,000  Level FlightAware
06:59AM -8.9120 115.3150 317° Northwest 456 525 40,000  Level FlightAware
07:00AM -8.8490 115.2560 317° Northwest 455 524 40,000  Level FlightAware
07:01AM -8.7820 115.1930 317° Northwest 455 524 40,000  Level FlightAware
07:01AM -8.7180 115.1390 320° Northwest 458 527 40,000  Level FlightAware
07:02AM -8.6460 115.0870 324° Northwest 460 529 40,000  Level FlightAware
07:03AM -8.5670 115.0290 324° Northwest 459 528 40,000  Level FlightAware
07:03AM -8.5000 114.9800 324° Northwest 458 527 40,000  Level FlightAware
07:04AM -8.4230 114.9240 324° Northwest 458 527 40,000  Level FlightAware
07:05AM -8.3540 114.8740 324° Northwest 458 527 40,000  Level FlightAware
07:06AM -8.2860 114.8230 323° Northwest 458 527 40,000  Level FlightAware
07:06AM -8.2070 114.7660 324° Northwest 456 525 40,000  Level FlightAware
07:07AM -8.1400 114.7170 324° Northwest 455 524 40,000  Level FlightAware
07:08AM -8.0700 114.6650 324° Northwest 452 520 40,000  Level FlightAware
07:08AM -8.0060 114.6000 315° West 452 520 40,000  Level FlightAware
07:09AM -7.9450 114.5390 315° West 453 521 40,000  Level FlightAware
07:10AM -7.8790 114.4730 315° West 454 522 40,000  Level FlightAware
07:10AM -7.8240 114.4180 315° West 456 525 40,000  Level FlightAware
07:11AM -7.7510 114.3450 315° West 458 527 40,000  Level FlightAware
07:12AM -7.7100 114.3040 315° West 458 527 40,000  Level FlightAware
07:13AM -7.6330 114.2270 315° West 459 528 40,000  Level FlightAware
07:13AM -7.5730 114.1660 315° West 459 528 40,000  Level FlightAware
07:14AM -7.5090 114.1020 315° West 459 528 40,000  Level FlightAware
07:15AM -7.4480 114.0410 315° West 460 529 40,000  Level FlightAware
07:15AM -7.3850 113.9780 315° West 461 531 40,000  Level FlightAware
07:16AM -7.3210 113.9140 315° West 460 529 40,000  Level FlightAware
07:17AM -7.2630 113.8550 315° West 460 529 40,000  Level FlightAware
07:17AM -7.1920 113.7850 316° Northwest 461 531 40,000  Level FlightAware
07:18AM -7.1230 113.7160 315° West 461 531 40,000  Level FlightAware
07:19AM -7.0520 113.6450 315° West 462 532 40,000  Level FlightAware
07:20AM -6.9710 113.5640 315° West 462 532 40,000  Level FlightAware
07:21AM -6.8730 113.4660 315° West 462 532 40,000  Level FlightAware
07:22AM -6.8220 113.4140 315° West 462 532 40,000  Level FlightAware
07:22AM -6.7580 113.3500 315° West 462 532 40,000  Level FlightAware
07:23AM -6.7060 113.2980 315° West 462 532 40,000  Level FlightAware
07:24AM -6.6550 113.2460 315° West 462 532 40,000  Level FlightAware
07:24AM -6.6030 113.1940 315° West 462 532 40,000  Level FlightAware
07:25AM -6.5520 113.1430 315° West 462 532 40,000  Level FlightAware
07:26AM -6.4880 113.0780 315° West 462 532 40,000  Level FlightAware
07:27AM -6.4360 113.0260 315° West 462 532 40,000  Level FlightAware
07:27AM -6.3850 112.9750 315° West 462 532 40,000  Level FlightAware
07:28AM -6.3340 112.9230 315° West 462 532 40,000  Level FlightAware
07:29AM -6.2820 112.8710 315° West 462 532 40,000  Level FlightAware
07:29AM -6.2180 112.8070 315° West 462 532 40,000  Level FlightAware
07:30AM -6.1670 112.7550 315° West 462 532 40,000  Level FlightAware
07:33AM -5.9697 112.5219 310° West  Level Estimated
07:34AM -5.8868 112.4241 310° West  Level Estimated
07:35AM -5.8040 112.3264 310° West  Level Estimated
07:36AM -5.7211 112.2287 310° West  Level Estimated
07:37AM -5.6382 112.1310 310° West  Level Estimated
07:38AM -5.5553 112.0333 310° West  Level Estimated
07:39AM -5.4724 111.9357 310° West  Level Estimated
07:40AM -5.3895 111.8381 310° West  Level Estimated
07:41AM -5.3066 111.7406 310° West  Level Estimated
07:42AM -5.2236 111.6430 310° West  Level Estimated
07:43AM -5.1406 111.5455 311° West  Level Estimated
07:44AM -5.0576 111.4480 311° West  Level Estimated
07:45AM -4.9746 111.3505 311° West  Level Estimated
07:46AM -4.8916 111.2531 311° West  Level Estimated
07:47AM -4.8086 111.1557 311° West  Level Estimated
07:48AM -4.7255 111.0583 311° West  Level Estimated
07:49AM -4.6425 110.9609 311° West  Level Estimated
07:50AM -4.5594 110.8636 311° West  Level Estimated
07:51AM -4.4763 110.7663 311° West  Level Estimated
07:52AM -4.3932 110.6690 311° West  Level Estimated
07:53AM -4.3101 110.5717 311° West  Level Estimated
07:54AM -4.2270 110.4744 311° West  Level Estimated
07:55AM -4.1438 110.3772 311° West  Level Estimated
07:56AM -4.0607 110.2800 311° West  Level Estimated
07:57AM -3.9775 110.1827 311° West  Level Estimated
07:58AM -3.8944 110.0856 311° West  Level Estimated
07:59AM -3.8112 109.9884 311° West  Level Estimated
08:00AM -3.7280 109.8913 311° West  Level Estimated
08:01AM -3.6448 109.7942 311° West  Level Estimated
08:02AM -3.5616 109.6971 311° West  Level Estimated
08:03AM -3.4784 109.6000 311° West  Level Estimated
08:04AM -3.3951 109.5029 311° West  Level Estimated
08:05AM -3.3119 109.4058 311° West  Level Estimated
08:06AM -3.2287 109.3088 311° West  Level Estimated
08:07AM -3.1454 109.2118 311° West  Level Estimated
08:08AM -3.0621 109.1148 311° West  Level Estimated
08:09AM -2.9788 109.0178 311° West  Level Estimated
08:10AM -2.8956 108.9208 311° West  Level Estimated
08:11AM -2.8122 108.8238 311° West  Level Estimated
08:12AM -2.7289 108.7269 311° West  Level Estimated
08:13AM -2.6456 108.6300 311° West  Level Estimated
08:14AM -2.5623 108.5330 311° West  Level Estimated
08:15AM -2.4790 108.4361 311° West  Level Estimated
08:16AM -2.3956 108.3392 311° West  Level Estimated
08:17AM -2.3123 108.2423 311° West  Level Estimated
08:18AM -2.2290 108.1455 311° West  Level Estimated
08:19AM -2.1456 108.0486 311° West  Level Estimated
08:20AM -2.0622 107.9518 311° West  Level Estimated
08:21AM -1.9789 107.8549 311° West  Level Estimated
08:22AM -1.8955 107.7581 311° West  Level Estimated
08:23AM -1.8121 107.6613 311° West  Level Estimated
08:24AM -1.7287 107.5645 311° West  Level Estimated
08:25AM -1.6453 107.4677 311° West  Level Estimated
08:26AM -1.5619 107.3709 311° West  Level Estimated
08:27AM -1.4785 107.2741 311° West  Level Estimated
08:28AM -1.3951 107.1773 311° West  Level Estimated
08:29AM -1.3117 107.0805 311° West  Level Estimated
08:30AM -1.2283 106.9838 311° West  Level Estimated
08:31AM -1.1449 106.8870 311° West  Level Estimated
08:32AM -1.0615 106.7902 311° West  Level Estimated
08:33AM -0.9781 106.6935 311° West  Level Estimated
08:34AM -0.8947 106.5967 311° West  Level Estimated
08:35AM -0.8112 106.5000 311° West  Level Estimated
08:36AM -0.7278 106.4033 311° West  Level Estimated
08:37AM -0.6444 106.3065 311° West  Level Estimated
08:38AM -0.5609 106.2098 311° West  Level Estimated
08:38AM -0.1680 106.1540 311° West 477 549 40,000  Level FlightAware
08:38AM -0.1060 106.1030 321° Northwest 476 548 40,000  Level FlightAware
08:39AM -0.4775 106.1131 311° West  Level Estimated
08:39AM -0.0270 106.0390 321° Northwest 473 544 40,000  Level FlightAware
08:40AM 0.0430 105.9810 320° Northwest 470 541 40,000  Level FlightAware
08:41AM 0.1120 105.9240 320° Northwest 468 539 40,000 -180 Level FlightAware
08:41AM 0.1860 105.8630 321° Northwest 468 539 39,800 -780 Descending FlightAware
08:42AM 0.2560 105.8060 321° Northwest 464 534 38,900 -1,800 Descending FlightAware
08:43AM 0.3280 105.7460 320° Northwest 467 537 37,300 -2,580 Descending FlightAware
08:43AM 0.3980 105.6890 321° Northwest 480 552 35,300 -2,940 Descending FlightAware
08:44AM 0.4770 105.6240 321° Northwest 487 560 33,200 -2,520 Descending FlightAware
08:45AM 0.5460 105.5680 321° Northwest 480 552 31,800 -2,100 Descending FlightAware
08:45AM 0.6120 105.5080 318° Northwest 476 548 30,400 -2,100 Descending FlightAware
08:46AM 0.6480 105.4200 292° West 464 534 28,900 -2,160 Descending FlightAware
08:47AM 0.6600 105.3360 278° West 454 522 27,400 -2,220 Descending FlightAware
08:48AM 0.6740 105.2430 279° West 443 510 25,800 -2,160 Descending FlightAware
08:48AM 0.6850 105.1620 278° West 433 498 24,400 -2,100 Descending FlightAware
08:49AM 0.6980 105.0760 279° West 425 489 22,900 -2,100 Descending FlightAware
08:50AM 0.7090 104.9990 278° West 417 480 21,500 -2,100 Descending FlightAware
08:50AM 0.7230 104.9130 279° West 408 470 20,000 -2,100 Descending FlightAware
08:51AM 0.7500 104.8430 291° West 399 459 18,600 -1,980 Descending FlightAware
08:52AM 0.7780 104.7680 290° West 393 452 17,200 -1,740 Descending FlightAware
08:53AM 0.8070 104.7030 294° West 373 429 16,200 -1,440 Descending FlightAware
08:53AM 0.8260 104.6840 315° West 360 414 15,900 -1,440 Descending FlightAware
08:53AM 0.8800 104.6460 325° Northwest 349 402 14,900 -1,740 Descending FlightAware
08:54AM 0.9380 104.6030 323° Northwest 347 399 13,500 -1,860 Descending FlightAware
08:55AM 0.9890 104.5660 324° Northwest 343 395 12,300 -1,680 Descending FlightAware
08:56AM 1.0410 104.5280 324° Northwest 337 388 11,300 -1,080 Descending FlightAware
08:56AM 1.0960 104.4870 323° Northwest 308 354 10,800 -720 Descending FlightAware
08:57AM 1.1410 104.4540 324° Northwest 300 345 10,300 -960 Descending FlightAware
08:57AM 1.1750 104.4280 323° Northwest 297 342 9,700 -1,200 Descending FlightAware
08:58AM 1.2070 104.4050 324° Northwest 296 341 9,100 -1,200 Descending FlightAware
08:58AM 1.2350 104.3840 323° Northwest 295 339 8,600 -1,200 Descending FlightAware
08:59AM 1.2680 104.3600 324° Northwest 291 335 8,000 -1,320 Descending FlightAware
08:59AM 1.2950 104.3400 323° Northwest 288 331 7,400 -1,320 Descending FlightAware
09:00AM 1.3270 104.3160 323° Northwest 286 329 6,800 -1,200 Descending FlightAware
09:00AM 1.3530 104.2970 324° Northwest 282 325 6,300 -1,140 Descending FlightAware
09:01AM 1.3830 104.2750 324° Northwest 278 320 5,800 -1,200 Descending FlightAware
09:01AM 1.4000 104.2630 325° Northwest 275 316 5,400 -1,380 Descending FlightAware
09:01AM 1.4320 104.2390 323° Northwest 275 316 4,800 -1,140 Descending FlightAware
09:02AM 1.4560 104.2210 323° Northwest 273 314 4,400 -1,080 Descending FlightAware
09:02AM 1.4720 104.2100 326° Northwest 269 310 4,100 -900 Descending FlightAware
09:03AM 1.4960 104.1920 323° Northwest 256 295 3,800 -660 Descending FlightAware
09:03AM 1.5240 104.1710 323° Northwest 244 281 3,500 -540 Descending FlightAware
09:04AM 1.5470 104.1490 316° Northwest 222 255 3,300 -420 Descending FlightAware
09:04AM 1.5510 104.1330 284° West 208 239 3,200 -600 Descending FlightAware
09:04AM 1.5520 104.1150 273° West 200 230 2,900 -900 Descending FlightAware
09:05AM 1.5400 104.0880 246° West 196 226 2,400 -780 Descending FlightAware
09:05AM 1.5250 104.0690 232° Southwest 197 227 2,200 -240 Descending FlightAware
09:06AM 1.5100 104.0500 232° Southwest 195 224 2,200  Level FlightAware
09:06AM 1.4970 104.0400 218° Southwest 192 221 2,200  Level FlightAware
09:06AM 1.4780 104.0320 203° Southwest 174 200 2,200 -360 Level FlightAware
09:07AM 1.4560 104.0230 202° Southwest 163 188 1,900 -780 Descending FlightAware
09:07AM 1.4400 104.0160 204° Southwest 149 171 1,500 -900 Descending FlightAware
09:08AM 1.4220 104.0080 204° Southwest 135 155 1,100 -720 Descending FlightAware
09:08AM 1.4130 104.0040 204° Southwest 135 155 1,000 -720 Descending FlightAware
09:08AM 1.3940 103.9970 200° South 137 158 600 -780 Descending FlightAware
09:09AM 1.3810 103.9910 205° Southwest 137 158 300 -720 Descending FlightAware
09:13AM 1.3557 103.9875 77° East  Level Estimated